Select Airport:
Chesapeake Regional Airport
Last updated: 17 minutes ago
Flight conditions: VFR
Visibility: 7.0 statute miles
Sky Conditions: Clear
Weather conditions: Reports of nearby thunderstorms
Wind From:
Wind speed: 0 knots (0 mph)
Temperature: 22.4°C (72.32°F)
Dew Point: 21.8°C (71.24°F)
Altimiter setting: 30.02 in-hg
WX phone: 1-757-204-4290
WX freq: 123.675 MHz
No wind, all runways available.
If at an uncontrolled airport, be sure to listen carefully to the CTAF for the runway(s) in use.
KCPK 180615Z AUTO 00000KT 7SM VCTS CLR 22/22 A3002 RMK AO2 LTG DSNT S T02240218
FOR REFERENCE USE ONLY, DATA MAY NOT BE CURRENT.
ALWAYS CHECK FOR UP TO DATE INFORMATION.